Jepson Prairie Reserve, California Weather observations

Data are for 10 minute period ending at time listed.
 Day   Time   Solar   Ave.   Ave.  Ave.  Vector  Max.   Baro.   Total    
  of    of     Rad.   Air    Rel.  Wind   Wind   Wind  Press.  Precip.   
Year   Day            Temp.  Hum.  Speed  Dir.   Gust                    
2014   (PST)  Kw/m2    F      %     mph   deg.    mph    mb.     in.     
-------------------------------------------------------------------------
 205    0:00   0.00   66.1    75   16.6   203    20.0   1013.5    0.00 
 205    0:10   0.00   66.0    75   15.6   202    19.1   1013.5    0.00 
 205    0:20   0.00   65.9    75   15.9   205    20.1   1013.5    0.00 
 205    0:30   0.00   66.0    75   16.9   207    21.5   1013.5    0.00 
 205    0:40   0.00   65.6    76   16.0   207    20.2   1013.5    0.00 
 205    0:50   0.00   65.5    77   15.8   210    20.5   1013.5    0.00 
 205    1:00   0.00   65.3    77   16.1   210    20.8   1013.5    0.00 
 205    1:10   0.00   65.1    78   13.7   213    18.6   1013.5    0.00 
 205    1:20   0.00   64.8    79   13.0   217    16.8   1013.5    0.00 
 205    1:30   0.00   64.6    79   15.4   216    21.0   1013.5    0.00 
 205    1:40   0.00   64.5    78   16.0   214    20.2   1013.5    0.00 
 205    1:50   0.00   64.5    78   16.6   212    20.8   1013.2    0.00 
 205    2:00   0.00   64.1    78   16.2   210    20.0   1013.2    0.00 
 205    2:10   0.00   63.9    78   16.9   211    20.4   1013.2    0.00 
 205    2:20   0.00   63.6    78   15.6   211    20.4   1013.2    0.00 
 205    2:30   0.00   63.3    79   15.1   209    18.2   1013.2    0.00 
 205    2:40   0.00   63.1    79   14.7   213    18.9   1013.2    0.00 
 205    2:50   0.00   63.0    79   15.9   213    19.4   1013.2    0.00 
 205    3:00   0.00   62.9    80   14.9   212    18.3   1012.9    0.00 
 205    3:10   0.00   62.7    80   15.0   211    18.3   1012.9    0.00 
 205    3:20   0.00   62.6    80   14.9   208    18.2   1012.9    0.00 
 205    3:30   0.00   62.5    81   14.9   208    18.8   1012.9    0.00 
 205    3:40   0.00   62.6    81   15.1   211    19.6   1012.9    0.00 
 205    3:50   0.00   62.6    81   13.7   213    16.4   1012.9    0.00 
 205    4:00   0.00   62.4    82   13.8   211    17.0   1012.9    0.00 
 205    4:10   0.00   62.2    83   12.9   215    16.7   1012.9    0.00 
 205    4:20   0.00   61.8    83   12.2   218    15.9   1012.9    0.00 
 205    4:30   0.00   61.6    83   10.5   219    15.3   1013.2    0.00 
 205    4:40   0.00   61.3    84   10.5   216    14.5   1013.2    0.00 
 205    4:50   0.00   61.3    84   11.2   218    15.7   1013.2    0.00 
 205    5:00   0.00   61.6    84   10.3   210    16.3   1013.2    0.00 
 205    5:10   0.01   61.7    84    9.9   215    13.8   1013.2    0.00 
 205    5:20   0.02   61.6    84   11.0   217    13.4   1013.2    0.00 
 205    5:30   0.04   61.6    84   10.4   215    13.7   1013.5    0.00 
 205    5:40   0.06   61.7    84    8.1   218    10.6   1013.5    0.00 
 205    5:50   0.08   62.1    83    8.0   222    12.0   1013.5    0.00 
 205    6:00   0.10   62.7    82    7.6   222    10.5   1013.9    0.00 
 205    6:10   0.13   63.2    80    7.5   223    10.4   1013.9    0.00 
 205    6:20   0.16   64.2    77    6.2   226     9.5   1014.2    0.00 
 205    6:30   0.19   64.8    75    7.7   233    11.1   1014.2    0.00 
 205    6:40   0.22   65.6    73    8.6   228    11.1   1014.2    0.00 
 205    6:50   0.25   66.3    72    6.8   228     9.3   1014.2    0.00 
 205    7:00   0.29   67.4    69    7.0   232     9.1   1014.2    0.00 
 205    7:10   0.31   68.4    67    6.4   269     9.1   1014.2    0.00 
 205    7:20   0.34   69.0    66    7.7   290    10.4   1014.2    0.00 
 205    7:30   0.37   69.8    65    6.5   309     9.6   1014.2    0.00 
 205    7:40   0.41   70.5    64    5.2   292     8.1   1014.2    0.00 
 205    7:50   0.44   71.7    61    4.8   305     8.0   1014.2    0.00 
 205    8:00   0.47   72.4    60    5.4   333     8.3   1013.9    0.00 
 205    8:10   0.50   73.6    58    5.7   346    10.8   1013.9    0.00 
 205    8:20   0.53   74.4    56    7.9   336    11.5   1013.9    0.00 
 205    8:30   0.56   75.9    50   11.2   335    16.4   1013.5    0.00 
 205    8:40   0.59   77.3    44   13.8   333    18.0   1013.2    0.00 
 205    8:50   0.62   78.7    40   13.8   333    18.0   1013.2    0.00 
 205    9:00   0.65   79.3    39   13.0   338    17.0   1012.9    0.00 
 205    9:10   0.67   79.8    37   11.7   341    16.5   1012.9    0.00 
 205    9:20   0.70   80.8    35   12.3   324    17.2   1012.9    0.00 
 205    9:30   0.73   81.4    32   14.1   328    19.8   1012.5    0.00 
 205    9:40   0.75   81.6    32   14.2   337    19.6   1012.5    0.00 
 205    9:50   0.78   82.3    32   14.4   323    18.6   1012.5    0.00 
 205   10:00   0.80   82.7    32   11.5   332    16.2   1012.2    0.00 
 205   10:10   0.81   83.4    32    8.3   342    15.3   1012.5    0.00 
 205   10:20   0.83   84.3    32    7.3    13    12.1   1012.2    0.00 
 205   10:30   0.85   84.9    32    7.9   350    13.5   1012.2    0.00 
 205   10:40   0.86   85.3    32    9.4   349    16.0   1012.2    0.00 
 205   10:50   0.88   85.2    32    9.8   354    15.4   1012.2    0.00 
 205   11:00   0.89   85.3    31   10.7   347    16.3   1011.9    0.00 
 205   11:10   0.90   85.6    31    9.9   342    16.6   1011.9    0.00 
 205   11:20   0.91   86.1    31   10.5   332    15.4   1011.5    0.00 
 205   11:30   0.92   86.3    31    9.5   334    14.5   1011.5    0.00 
 205   11:40   0.93   86.9    30   11.2   345    15.8   1011.5    0.00 
 205   11:50   0.94   86.9    30   10.6   330    15.0   1011.2    0.00 
 205   12:00   0.94   88.2    29   11.0   356    16.3   1011.2    0.00 
 205   12:10   0.94   88.8    29   10.6   350    15.9   1010.8    0.00 
 205   12:20   0.94   89.2    29    9.1   342    15.5   1010.8    0.00 
 205   12:30   0.94   89.6    28    7.7   336    15.8   1010.8    0.00 
 205   12:40   0.94   90.1    28    9.1   355    16.4   1010.5    0.00 
 205   12:50   0.94   90.4    28    8.9   333    17.0   1010.5    0.00 
 205   13:00   0.93   90.7    27    7.8   317    11.8   1010.5    0.00 
 205   13:10   0.93   91.3    27    9.2   324    14.7   1010.2    0.00 
 205   13:20   0.91   92.1    26    8.7   327    14.3   1010.2    0.00 
 205   13:30   0.90   92.5    26    6.1   345    13.2   1009.8    0.00 
 205   13:40   0.89   92.7    26    7.9   348    12.7   1009.8    0.00 
 205   13:50   0.88   93.1    25    8.3   334    14.2   1009.8    0.00 
 205   14:00   0.86   93.0    25    7.1   336    15.2   1009.5    0.00 
 205   14:10   0.84   93.3    25    4.3   346    12.3   1009.5    0.00 
 205   14:20   0.83   93.5    24    7.9     6    12.9   1009.1    0.00 
 205   14:30   0.81   94.0    24    8.7   348    13.8   1009.1    0.00 
 205   14:40   0.79   94.5    23    6.3   315    11.3   1008.8    0.00 
 205   14:50   0.77   94.5    22    4.9   293    10.5   1008.8    0.00 
 205   15:00   0.74   94.8    23    7.5   353    13.2   1008.8    0.00 
 205   15:10   0.72   94.7    22    7.1   304    13.9   1008.5    0.00 
 205   15:20   0.69   95.2    22    8.0   333    13.2   1008.5    0.00 
 205   15:30   0.66   95.0    22    6.7   317    12.5   1008.5    0.00 
 205   15:40   0.64   95.4    22    8.9   334    14.5   1008.1    0.00 
 205   15:50   0.61   95.5    21    8.8   311    15.6   1008.1    0.00 
 205   16:00   0.58   96.0    20    2.9   301     7.7   1007.8    0.00 
 205   16:10   0.55   97.0    20    7.4   311    14.3   1007.8    0.00 
 205   16:20   0.52   95.8    21    4.3   325     9.1   1007.8    0.00 
 205   16:30   0.48   96.0    21    6.8   318    12.3   1007.5    0.00 
 205   16:40   0.45   96.2    21    5.2   244    11.4   1007.5    0.00 
 205   16:50   0.42   95.6    24    8.2   196    14.2   1007.5    0.00 
 205   17:00   0.38   95.6    23    8.4   209    16.2   1007.5    0.00 
 205   17:10   0.34   95.9    22    5.7   223    10.3   1007.1    0.00 
 205   17:20   0.32   94.9    23   13.7   228    18.7   1007.5    0.00 
 205   17:30   0.28   93.3    25   15.1   235    18.9   1007.5    0.00 
 205   17:40   0.25   92.3    27   16.2   229    20.4   1007.5    0.00 
 205   17:50   0.22   91.2    28   16.9   228    20.0   1007.1    0.00 
 205   18:00   0.19   90.4    28   16.8   230    20.4   1007.1    0.00 
 205   18:10   0.16   89.6    28   18.0   230    21.4   1007.1    0.00 
 205   18:20   0.13   88.8    29   17.2   229    21.3   1006.8    0.00 
 205   18:30   0.10   87.9    29   17.0   228    20.6   1006.8    0.00 
 205   18:40   0.08   87.1    30   16.1   230    20.7   1006.8    0.00 
 205   18:50   0.06   86.1    31   16.1   231    20.5   1006.8    0.00 
 205   19:00   0.04   85.1    32   13.7   229    18.3   1006.4    0.00 
 205   19:10   0.02   83.9    34   14.0   226    18.9   1006.4    0.00 
 205   19:20   0.01   82.8    35   14.3   225    17.5   1006.4    0.00 
 205   19:30   0.01   81.4    35   13.9   226    16.7   1006.4    0.00 
 205   19:40   0.00   80.3    36   13.8   223    17.3   1006.4    0.00 
 205   19:50   0.00   79.3    37   12.0   220    16.0   1006.4    0.00 
 205   20:00   0.00   78.1    38   11.4   210    14.7   1006.8    0.00 
 205   20:10   0.00   77.3    39   11.9   206    14.5   1006.8    0.00 
 205   20:20   0.00   77.0    40   11.2   197    13.5   1006.8    0.00 
 205   20:30   0.00   76.2    42   12.0   201    14.2   1007.1    0.00 
 205   20:40   0.00   75.9    42   11.5   195    15.1   1007.1    0.00 
 205   20:50   0.00   75.8    42   13.5   200    16.9   1007.1    0.00 
 205   21:00   0.00   75.5    42   13.0   201    15.6   1007.1    0.00 
 205   21:10   0.00   74.6    45   11.8   196    15.4   1007.1    0.00 
 205   21:20   0.00   73.6    47   12.0   198    15.9   1007.5    0.00 
 205   21:30   0.00   73.5    47   14.0   199    17.5   1007.5    0.00 
 205   21:40   0.00   73.1    49   13.3   200    17.4   1007.5    0.00 
 205   21:50   0.00   72.4    50   11.1   202    14.4   1007.5    0.00 
 205   22:00   0.00   72.0    50   12.6   199    15.6   1007.5    0.00 
 205   22:10   0.00   71.8    50   12.5   200    15.1   1007.5    0.00 
 205   22:20   0.00   71.6    50   12.9   201    15.5   1007.5    0.00 
 205   22:30   0.00   71.5    50   13.2   200    15.9   1007.5    0.00 
 205   22:40   0.00   71.3    51   12.1   202    15.1   1007.5    0.00 
 205   22:50   0.00   71.2    51   12.5   195    16.7   1007.5    0.00 
 205   23:00   0.00   70.9    51   11.0   200    13.4   1007.5    0.00 

Return to Jepson Prairie Reserve graphs page.


Western Regional Climate Center,wrcc@dri.edu